Time;durP1;ratioP1;P1;durP2;ratioP2;P2;SDS_P1;SDS_P2;PMS_P1;PMS_P2;Temp;Humidity;BMP_temperature;BMP_pressure;BME280_temperature;BME280_humidity;BME280_pressure;Samples;Min_cycle;Max_cycle;Signal;HPM_P1;HPM_P2
2022/07/31 00:01:13;;;;;;;3.03;1.50;;;21.70;71.70;;;;;;5051066;28;20021;-63
2022/07/31 00:03:39;;;;;;;2.03;1.23;;;21.60;71.80;;;;;;5051292;28;20506;-63
2022/07/31 00:06:04;;;;;;;2.58;1.30;;;21.60;72.00;;;;;;5048557;28;20096;-63
2022/07/31 00:08:30;;;;;;;3.03;1.58;;;21.60;72.10;;;;;;5050169;28;20092;-63
2022/07/31 00:10:56;;;;;;;3.08;1.42;;;21.60;72.20;;;;;;5029956;28;20108;-63
2022/07/31 00:13:22;;;;;;;3.42;1.20;;;21.60;72.50;;;;;;5048875;28;20104;-63
2022/07/31 00:15:47;;;;;;;6.30;1.42;;;21.60;72.40;;;;;;5047931;28;20067;-63
2022/07/31 00:18:13;;;;;;;1.75;0.80;;;21.60;72.40;;;;;;5050350;28;20033;-63
2022/07/31 00:20:39;;;;;;;2.10;1.17;;;21.60;72.30;;;;;;5031203;28;20072;-63
2022/07/31 00:23:04;;;;;;;4.80;2.05;;;21.60;72.30;;;;;;5049276;28;20025;-63
2022/07/31 00:25:30;;;;;;;2.35;1.58;;;21.60;72.60;;;;;;5047796;28;20535;-63
2022/07/31 00:27:56;;;;;;;4.78;1.70;;;21.60;72.60;;;;;;5051554;28;20425;-63
2022/07/31 00:30:22;;;;;;;2.53;1.83;;;21.60;72.70;;;;;;5047103;28;20021;-63
2022/07/31 00:32:47;;;;;;;2.75;2.00;;;21.70;72.80;;;;;;5037871;28;20033;-63
2022/07/31 00:35:13;;;;;;;4.15;1.77;;;21.60;72.90;;;;;;5045726;28;20108;-63
2022/07/31 00:37:40;;;;;;;4.13;1.75;;;21.60;73.80;;;;;;5050447;28;20105;-63
2022/07/31 00:40:06;;;;;;;2.90;2.20;;;21.60;73.20;;;;;;5044145;28;20432;-63
2022/07/31 00:42:32;;;;;;;2.40;1.65;;;21.60;73.40;;;;;;5050429;28;20036;-63
2022/07/31 00:44:58;;;;;;;2.78;2.00;;;21.60;73.50;;;;;;5044806;28;20026;-63
2022/07/31 00:47:23;;;;;;;4.40;2.08;;;21.50;73.50;;;;;;5050797;28;20452;-64
2022/07/31 00:49:49;;;;;;;2.10;1.73;;;21.50;73.80;;;;;;5050211;28;20377;-63
2022/07/31 00:52:14;;;;;;;3.00;1.90;;;21.40;74.00;;;;;;5049429;28;20555;-63
2022/07/31 00:54:40;;;;;;;3.25;1.85;;;21.50;74.00;;;;;;5055184;28;20033;-63
2022/07/31 00:57:05;;;;;;;2.90;1.92;;;21.40;74.00;;;;;;5049239;28;20021;-63
2022/07/31 00:59:31;;;;;;;3.55;1.73;;;21.50;74.30;;;;;;5055039;28;20070;-63
2022/07/31 01:01:58;;;;;;;2.53;2.10;;;21.40;74.50;;;;;;5048715;28;20061;-63
2022/07/31 01:04:25;;;;;;;2.40;1.42;;;21.40;74.80;;;;;;5038433;28;20034;-63
2022/07/31 01:06:54;;;;;;;2.75;1.58;;;21.40;75.10;;;;;;5041070;28;20021;-63
2022/07/31 01:09:20;;;;;;;2.13;1.92;;;21.40;76.00;;;;;;5050994;28;20029;-63
2022/07/31 01:12:16;;;;;;;3.42;1.95;;;21.30;75.50;;;;;;5052961;28;20532;-63
2022/07/31 01:14:51;;;;;;;2.55;1.52;;;21.30;75.60;;;;;;5049672;28;20052;-63
2022/07/31 01:17:20;;;;;;;3.90;1.98;;;21.30;75.70;;;;;;5052549;28;20443;-64
2022/07/31 01:19:47;;;;;;;1.98;1.67;;;21.20;75.70;;;;;;5042337;28;20029;-63
2022/07/31 01:22:25;;;;;;;3.72;2.03;;;21.20;75.70;;;;;;5041127;28;20395;-63
2022/07/31 01:25:16;;;;;;;5.85;1.75;;;21.20;76.00;;;;;;5044412;28;20172;-63
2022/07/31 01:28:07;;;;;;;2.72;1.58;;;21.10;76.00;;;;;;5041370;28;20082;-63
2022/07/31 01:30:41;;;;;;;4.95;1.20;;;21.10;76.40;;;;;;5020929;28;20106;-63
2022/07/31 01:33:10;;;;;;;1.40;1.10;;;21.00;76.70;;;;;;5035033;28;20041;-63
2022/07/31 01:35:44;;;;;;;2.67;1.35;;;21.00;77.00;;;;;;5039650;28;20424;-63
2022/07/31 01:38:13;;;;;;;2.10;1.27;;;21.00;77.30;;;;;;5042216;28;20034;-63
2022/07/31 01:40:46;;;;;;;1.73;1.33;;;21.00;77.50;;;;;;5042224;28;20045;-63
2022/07/31 01:43:16;;;;;;;3.42;1.50;;;20.90;77.50;;;;;;5040430;28;20128;-63
2022/07/31 01:45:44;;;;;;;2.28;1.65;;;20.90;77.80;;;;;;5045576;28;20087;-63
2022/07/31 01:48:13;;;;;;;2.25;1.50;;;20.80;78.00;;;;;;5055022;28;20025;-63
2022/07/31 01:50:40;;;;;;;3.88;1.70;;;20.80;78.00;;;;;;5050424;28;20017;-63
2022/07/31 01:53:07;;;;;;;3.50;1.80;;;20.80;78.10;;;;;;5041400;28;20507;-63
2022/07/31 01:55:35;;;;;;;2.92;1.75;;;20.80;78.30;;;;;;5036612;28;20028;-63
2022/07/31 01:58:02;;;;;;;1.90;1.55;;;20.70;78.40;;;;;;5054103;28;20028;-63
2022/07/31 02:00:28;;;;;;;2.40;1.70;;;20.70;78.60;;;;;;5035366;28;20053;-63
2022/07/31 02:02:55;;;;;;;3.25;1.73;;;20.60;79.40;;;;;;5043948;28;20049;-63
2022/07/31 02:05:22;;;;;;;2.88;2.00;;;20.70;79.00;;;;;;5038829;28;20030;-63
2022/07/31 02:07:49;;;;;;;3.20;1.80;;;20.60;79.00;;;;;;5037852;28;20413;-63
2022/07/31 02:10:17;;;;;;;3.25;1.90;;;20.60;79.00;;;;;;5034422;28;21071;-63
2022/07/31 02:12:43;;;;;;;2.65;2.30;;;20.60;79.00;;;;;;5033314;28;20473;-63
2022/07/31 02:15:11;;;;;;;3.60;2.90;;;20.60;79.20;;;;;;5034596;28;20021;-63
2022/07/31 02:17:38;;;;;;;4.38;3.53;;;20.60;79.30;;;;;;5033420;28;20031;-63
2022/07/31 02:20:08;;;;;;;4.85;3.20;;;20.50;79.40;;;;;;5039723;28;20053;-63
2022/07/31 02:22:34;;;;;;;3.30;3.00;;;20.50;79.50;;;;;;5041529;28;20057;-63
2022/07/31 02:25:00;;;;;;;4.28;3.88;;;20.50;79.60;;;;;;5040489;28;20481;-63
2022/07/31 02:27:28;;;;;;;4.22;3.67;;;20.50;79.70;;;;;;5041828;28;20025;-63
2022/07/31 02:29:58;;;;;;;6.60;4.18;;;20.50;79.70;;;;;;5038601;28;20547;-63
2022/07/31 02:32:24;;;;;;;4.90;3.47;;;20.50;79.90;;;;;;5042916;28;20074;-63
2022/07/31 02:34:51;;;;;;;5.05;4.10;;;20.50;79.90;;;;;;5047392;28;20393;-63
2022/07/31 02:37:18;;;;;;;3.97;3.60;;;20.50;80.00;;;;;;5043158;28;20508;-62
2022/07/31 02:39:44;;;;;;;4.85;3.95;;;20.50;80.20;;;;;;5039370;28;20022;-63
2022/07/31 02:42:10;;;;;;;4.93;3.85;;;20.50;80.30;;;;;;5044659;28;20082;-63
2022/07/31 02:44:37;;;;;;;4.75;3.92;;;20.50;80.50;;;;;;5039977;28;20508;-63
2022/07/31 02:47:04;;;;;;;3.95;3.55;;;20.40;80.60;;;;;;5051600;28;20031;-63
2022/07/31 02:49:32;;;;;;;4.63;4.15;;;20.40;80.90;;;;;;5039576;28;20471;-63
2022/07/31 02:51:58;;;;;;;4.80;4.03;;;20.40;81.00;;;;;;5045851;28;20033;-63
2022/07/31 02:54:25;;;;;;;5.78;3.90;;;20.40;81.10;;;;;;5052345;28;20032;-63
2022/07/31 02:56:52;;;;;;;6.30;4.38;;;20.40;81.20;;;;;;5053784;28;20024;-63
2022/07/31 02:59:18;;;;;;;5.90;4.68;;;20.40;81.30;;;;;;5052538;28;20431;-63
2022/07/31 03:01:44;;;;;;;5.90;4.82;;;20.40;81.40;;;;;;5041323;28;20045;-63
2022/07/31 03:04:09;;;;;;;5.70;3.88;;;20.40;81.40;;;;;;5046272;28;20472;-63
2022/07/31 03:06:35;;;;;;;5.45;4.15;;;20.30;81.30;;;;;;5038387;28;20017;-63
2022/07/31 03:09:01;;;;;;;4.15;3.63;;;20.30;81.30;;;;;;5051634;28;20497;-63
2022/07/31 03:11:27;;;;;;;6.55;3.50;;;20.30;81.20;;;;;;5052162;28;20025;-63
2022/07/31 03:13:54;;;;;;;4.82;3.55;;;20.30;81.20;;;;;;5042855;28;20040;-62
2022/07/31 03:16:20;;;;;;;5.38;3.58;;;20.30;81.30;;;;;;5038912;28;20025;-63
2022/07/31 03:18:47;;;;;;;3.88;3.45;;;20.30;81.40;;;;;;5036813;28;20029;-63
2022/07/31 03:21:13;;;;;;;4.18;3.42;;;20.30;81.40;;;;;;5038341;28;20033;-63
2022/07/31 03:23:39;;;;;;;3.92;3.50;;;20.30;81.50;;;;;;5036501;28;20025;-63
2022/07/31 03:26:05;;;;;;;4.70;3.85;;;20.30;81.60;;;;;;5036680;28;20052;-62
2022/07/31 03:28:33;;;;;;;4.57;3.75;;;20.30;81.80;;;;;;5037605;28;20540;-63
2022/07/31 03:30:59;;;;;;;5.88;3.97;;;20.20;82.10;;;;;;5025813;28;20021;-63
2022/07/31 03:33:25;;;;;;;4.97;3.53;;;20.20;82.30;;;;;;5027063;28;20013;-63
2022/07/31 03:35:52;;;;;;;5.35;3.67;;;20.20;82.60;;;;;;5047845;28;20050;-63
2022/07/31 03:38:18;;;;;;;5.65;3.65;;;20.10;82.80;;;;;;5045158;28;20484;-63
2022/07/31 03:40:43;;;;;;;5.35;3.80;;;20.10;83.10;;;;;;5049139;28;20534;-63
2022/07/31 03:43:10;;;;;;;5.10;4.55;;;20.00;83.30;;;;;;5051788;28;20021;-63
2022/07/31 03:45:37;;;;;;;7.25;5.20;;;20.00;83.60;;;;;;5048889;28;20473;-63
2022/07/31 03:48:04;;;;;;;5.22;4.47;;;20.00;84.00;;;;;;5048606;28;20025;-63
2022/07/31 03:50:29;;;;;;;5.03;4.20;;;19.90;84.30;;;;;;5048974;28;20028;-63
2022/07/31 03:52:56;;;;;;;5.15;4.03;;;19.90;84.60;;;;;;5045612;28;20022;-63
2022/07/31 03:55:21;;;;;;;4.53;3.63;;;19.90;84.70;;;;;;5051921;28;20021;-63
2022/07/31 03:57:48;;;;;;;4.70;3.28;;;19.80;84.80;;;;;;5052181;28;20029;-63
2022/07/31 04:00:14;;;;;;;4.45;3.55;;;19.80;84.90;;;;;;5051733;28;20013;-63
2022/07/31 04:02:40;;;;;;;4.32;2.83;;;19.80;85.00;;;;;;5051697;28;20048;-63
2022/07/31 04:05:06;;;;;;;6.72;4.55;;;19.80;85.20;;;;;;5040434;28;20509;-63
2022/07/31 04:07:32;;;;;;;9.23;5.13;;;19.70;85.90;;;;;;5048554;28;20029;-63
2022/07/31 04:09:57;;;;;;;7.70;4.57;;;19.60;86.40;;;;;;5049741;28;20029;-63
2022/07/31 04:12:23;;;;;;;5.47;4.15;;;19.60;86.50;;;;;;5047762;28;20032;-63
2022/07/31 04:14:48;;;;;;;5.97;4.15;;;19.60;86.50;;;;;;5032481;28;20022;-63
2022/07/31 04:17:14;;;;;;;6.75;4.80;;;19.60;86.40;;;;;;5049213;28;20525;-63
2022/07/31 04:19:40;;;;;;;5.95;4.50;;;19.70;86.40;;;;;;5041402;28;20377;-63
2022/07/31 04:22:06;;;;;;;6.05;4.50;;;19.70;86.30;;;;;;5036400;28;20380;-63
2022/07/31 04:24:31;;;;;;;5.75;4.95;;;19.70;86.30;;;;;;5041256;28;20504;-63
2022/07/31 04:26:57;;;;;;;7.18;4.85;;;19.70;86.30;;;;;;5031607;28;20025;-63
2022/07/31 04:29:23;;;;;;;7.07;5.43;;;19.70;86.30;;;;;;5031347;28;20018;-62
2022/07/31 04:31:49;;;;;;;6.65;5.32;;;19.70;86.40;;;;;;5045344;28;20033;-63
2022/07/31 04:34:14;;;;;;;6.53;5.70;;;19.60;86.60;;;;;;5032556;28;20032;-63
2022/07/31 04:36:40;;;;;;;5.97;5.00;;;19.60;86.60;;;;;;5032139;28;20029;-63
2022/07/31 04:39:05;;;;;;;7.80;5.68;;;19.60;86.80;;;;;;5032770;28;20022;-64
2022/07/31 04:41:31;;;;;;;5.53;4.97;;;19.60;86.90;;;;;;5045017;28;20034;-63
2022/07/31 04:43:58;;;;;;;5.63;5.10;;;19.60;87.10;;;;;;5043590;28;20107;-62
2022/07/31 04:46:24;;;;;;;7.90;5.38;;;19.60;87.10;;;;;;5051427;28;20384;-63
2022/07/31 04:48:50;;;;;;;6.72;5.10;;;19.70;87.10;;;;;;5051684;28;20109;-63
2022/07/31 04:51:20;;;;;;;5.03;4.53;;;19.70;87.10;;;;;;5045707;28;20092;-63
2022/07/31 04:53:46;;;;;;;5.63;4.35;;;19.70;87.20;;;;;;5038602;28;20361;-63
2022/07/31 04:58:56;;;;;;;9.80;7.65;;;19.70;87.80;;;;;;5040574;28;20084;-63
2022/07/31 05:01:22;;;;;;;10.10;7.75;;;19.70;88.50;;;;;;5045030;28;20073;-63
2022/07/31 05:03:48;;;;;;;11.65;7.53;;;19.60;89.30;;;;;;5049790;28;20057;-63
2022/07/31 05:06:14;;;;;;;9.57;8.23;;;19.60;90.00;;;;;;5047313;28;20104;-63
2022/07/31 05:08:39;;;;;;;9.23;8.02;;;19.60;90.30;;;;;;5048028;28;20111;-63
2022/07/31 05:11:23;;;;;;;8.30;6.80;;;19.50;90.50;;;;;;5050867;28;20025;-63
2022/07/31 05:13:54;;;;;;;9.35;7.13;;;19.50;90.70;;;;;;5030864;28;20447;-62
2022/07/31 05:16:21;;;;;;;8.50;6.68;;;19.50;90.80;;;;;;5051386;28;20017;-63
2022/07/31 05:18:47;;;;;;;8.93;8.00;;;19.50;90.70;;;;;;5052140;28;20064;-63
2022/07/31 05:21:14;;;;;;;11.40;9.02;;;19.50;90.70;;;;;;5051613;28;20013;-63
2022/07/31 05:23:41;;;;;;;9.50;7.55;;;19.50;90.90;;;;;;5048619;28;20105;-62
2022/07/31 05:26:07;;;;;;;8.98;8.07;;;19.50;90.90;;;;;;5054920;28;20033;-62
2022/07/31 05:28:32;;;;;;;9.55;8.45;;;19.40;91.10;;;;;;5048447;28;20036;-62
2022/07/31 05:30:59;;;;;;;12.30;8.68;;;19.40;91.30;;;;;;5054789;28;20021;-62
2022/07/31 05:33:25;;;;;;;9.55;8.57;;;19.40;91.50;;;;;;5051433;28;20400;-63
2022/07/31 05:35:50;;;;;;;10.30;7.70;;;19.30;91.60;;;;;;5052184;28;20032;-63
2022/07/31 05:38:16;;;;;;;10.75;7.57;;;19.40;91.70;;;;;;5048842;28;20389;-63
2022/07/31 05:40:41;;;;;;;11.05;8.32;;;19.40;91.70;;;;;;5050632;28;20056;-63
2022/07/31 05:43:07;;;;;;;10.98;9.75;;;19.40;91.70;;;;;;5049807;28;20025;-63
2022/07/31 05:45:33;;;;;;;7.88;7.05;;;19.40;91.60;;;;;;5051853;28;20017;-63
2022/07/31 05:47:58;;;;;;;11.80;9.98;;;19.50;91.60;;;;;;5051149;28;20024;-63
2022/07/31 05:50:24;;;;;;;9.52;7.35;;;19.50;91.60;;;;;;5051794;28;20099;-63
2022/07/31 05:52:49;;;;;;;10.52;9.40;;;19.50;91.60;;;;;;5048120;28;20052;-63
2022/07/31 05:55:15;;;;;;;10.70;9.30;;;19.50;91.60;;;;;;5054496;28;20044;-63
2022/07/31 05:57:41;;;;;;;13.40;9.82;;;19.50;91.60;;;;;;5054261;28;20035;-63
2022/07/31 06:00:07;;;;;;;10.35;8.30;;;19.50;91.70;;;;;;5036222;28;20021;-62
2022/07/31 06:02:34;;;;;;;10.60;9.43;;;19.50;91.60;;;;;;5052799;28;20041;-63
2022/07/31 06:04:59;;;;;;;10.25;9.10;;;19.50;91.60;;;;;;5044904;28;20025;-62
2022/07/31 06:07:25;;;;;;;8.32;7.53;;;19.50;91.60;;;;;;5023558;28;20123;-62
2022/07/31 06:09:51;;;;;;;10.77;9.63;;;19.50;91.60;;;;;;5043864;28;20386;-63
2022/07/31 06:12:17;;;;;;;12.75;10.35;;;19.50;91.70;;;;;;5023125;28;20025;-63
2022/07/31 06:14:42;;;;;;;11.13;9.93;;;19.50;91.90;;;;;;5045358;28;20084;-63
2022/07/31 06:17:08;;;;;;;14.05;12.25;;;19.40;92.00;;;;;;5036162;28;20020;-63
2022/07/31 06:19:34;;;;;;;11.05;9.73;;;19.30;92.30;;;;;;5035281;28;20036;-63
2022/07/31 06:21:59;;;;;;;12.73;9.88;;;19.40;92.50;;;;;;5046813;28;20056;-63
2022/07/31 06:24:25;;;;;;;12.57;11.27;;;19.40;92.50;;;;;;5035105;28;20022;-63
2022/07/31 06:26:55;;;;;;;12.43;11.02;;;19.40;92.60;;;;;;5037102;28;20041;-63
2022/07/31 06:29:21;;;;;;;11.60;9.68;;;19.30;92.80;;;;;;5034642;28;20031;-63
2022/07/31 06:31:47;;;;;;;11.20;10.02;;;19.40;93.00;;;;;;5036848;28;20108;-63
2022/07/31 06:34:12;;;;;;;11.45;9.20;;;19.30;93.20;;;;;;5035620;28;20041;-63
2022/07/31 06:36:38;;;;;;;9.07;8.18;;;19.30;93.40;;;;;;5039871;28;20036;-63
2022/07/31 06:39:04;;;;;;;10.52;9.02;;;19.40;93.50;;;;;;5046993;28;20167;-62
2022/07/31 06:41:47;;;;;;;9.73;8.63;;;19.40;93.60;;;;;;5045802;28;20076;-62
2022/07/31 06:44:18;;;;;;;9.68;8.55;;;19.40;93.80;;;;;;5051550;28;20020;-63
2022/07/31 06:46:48;;;;;;;9.38;8.43;;;19.30;94.10;;;;;;5053899;28;20103;-63
2022/07/31 06:49:14;;;;;;;8.90;7.25;;;19.30;94.30;;;;;;5061336;28;20075;-63
2022/07/31 06:51:39;;;;;;;9.13;6.70;;;19.30;94.40;;;;;;5033801;28;20090;-63
2022/07/31 06:54:08;;;;;;;9.98;7.72;;;19.30;94.40;;;;;;5055574;28;20111;-63
2022/07/31 06:56:34;;;;;;;11.93;8.23;;;19.40;94.50;;;;;;5058934;28;20028;-62
2022/07/31 06:59:00;;;;;;;10.75;8.93;;;19.40;94.80;;;;;;5052924;28;20017;-62
2022/07/31 07:01:26;;;;;;;10.70;8.25;;;19.50;95.00;;;;;;5055225;28;20421;-62
2022/07/31 07:03:52;;;;;;;9.98;8.88;;;19.50;95.10;;;;;;5065055;28;20477;-63
2022/07/31 07:06:17;;;;;;;10.02;7.68;;;19.50;95.40;;;;;;5047006;28;20086;-62
2022/07/31 07:08:43;;;;;;;9.60;7.70;;;19.50;95.50;;;;;;5054812;28;20166;-63
2022/07/31 07:11:08;;;;;;;10.93;7.88;;;19.50;95.80;;;;;;5054847;28;20028;-62
2022/07/31 07:13:34;;;;;;;9.55;6.43;;;19.50;95.70;;;;;;5054445;28;20110;-62
2022/07/31 07:15:59;;;;;;;10.13;7.85;;;19.60;95.60;;;;;;5052977;28;20026;-62
2022/07/31 07:18:25;;;;;;;9.90;7.45;;;19.60;95.60;;;;;;5047442;28;20021;-62
2022/07/31 07:20:52;;;;;;;8.43;6.90;;;19.60;95.60;;;;;;5048843;28;20044;-63
2022/07/31 07:23:17;;;;;;;7.85;5.90;;;19.70;95.70;;;;;;5036474;28;20041;-63
2022/07/31 07:25:43;;;;;;;8.20;5.95;;;19.70;95.60;;;;;;5041387;28;20021;-63
2022/07/31 07:28:09;;;;;;;8.40;5.20;;;19.80;95.40;;;;;;5050857;28;20021;-63
2022/07/31 07:30:35;;;;;;;9.63;6.55;;;19.90;95.30;;;;;;5034382;28;20079;-62
2022/07/31 07:33:00;;;;;;;8.57;6.05;;;19.90;95.20;;;;;;5035427;28;20017;-62
2022/07/31 07:35:26;;;;;;;8.35;6.18;;;19.90;95.40;;;;;;5034393;28;20053;-63
2022/07/31 07:37:52;;;;;;;8.43;6.50;;;19.90;95.20;;;;;;5037288;28;20120;-63
2022/07/31 07:40:19;;;;;;;7.65;5.55;;;20.00;95.20;;;;;;5044065;28;20075;-62
2022/07/31 07:42:45;;;;;;;9.93;7.25;;;20.10;95.10;;;;;;5049365;28;20048;-63
2022/07/31 07:45:11;;;;;;;7.20;5.53;;;20.10;95.00;;;;;;5033599;28;20099;-62
2022/07/31 07:47:37;;;;;;;9.45;6.63;;;20.20;94.90;;;;;;5055495;28;20104;-63
2022/07/31 07:50:06;;;;;;;6.93;5.93;;;20.30;94.80;;;;;;5043771;28;20074;-62
2022/07/31 07:52:32;;;;;;;10.50;7.53;;;20.30;94.70;;;;;;5063181;28;20048;-62
2022/07/31 07:54:58;;;;;;;11.52;8.35;;;20.30;94.60;;;;;;5054097;28;20496;-62
2022/07/31 07:57:23;;;;;;;9.32;6.78;;;20.40;94.80;;;;;;5051259;28;20029;-62
2022/07/31 07:59:49;;;;;;;8.38;6.28;;;20.40;94.80;;;;;;5058863;28;20031;-62
2022/07/31 08:02:15;;;;;;;13.20;9.20;;;20.60;94.60;;;;;;5057927;28;20562;-63
2022/07/31 08:04:41;;;;;;;13.48;9.02;;;20.70;94.70;;;;;;5055419;28;20035;-63
2022/07/31 08:07:07;;;;;;;11.57;8.23;;;20.70;94.40;;;;;;5058734;28;20020;-62
2022/07/31 08:09:34;;;;;;;10.93;7.82;;;20.70;94.30;;;;;;5049256;28;20017;-62
2022/07/31 08:12:00;;;;;;;12.05;8.88;;;20.70;94.20;;;;;;5057843;28;20049;-62
2022/07/31 08:14:26;;;;;;;12.48;9.90;;;20.80;94.10;;;;;;5060453;28;20110;-63
2022/07/31 08:16:52;;;;;;;10.57;9.00;;;20.80;94.20;;;;;;5034027;28;20067;-63
2022/07/31 08:19:21;;;;;;;11.10;8.07;;;20.70;94.40;;;;;;5050306;28;20017;-63
2022/07/31 08:21:46;;;;;;;7.95;6.05;;;20.80;94.40;;;;;;5057516;28;20112;-63
2022/07/31 08:24:12;;;;;;;9.13;6.85;;;20.90;94.20;;;;;;5042513;28;20529;-62
2022/07/31 08:29:27;;;;;;;11.38;7.95;;;21.10;93.80;;;;;;5031912;28;20028;-63
2022/07/31 08:31:53;;;;;;;13.52;9.15;;;21.30;93.70;;;;;;5057028;28;20029;-63
2022/07/31 08:34:27;;;;;;;12.77;9.98;;;21.30;93.70;;;;;;5060901;28;20451;-63
2022/07/31 08:36:59;;;;;;;13.57;9.80;;;21.40;93.30;;;;;;5059864;28;20107;-63
2022/07/31 08:39:24;;;;;;;11.27;7.18;;;21.30;93.40;;;;;;5057685;28;20025;-62
2022/07/31 08:41:50;;;;;;;8.93;6.40;;;21.30;93.50;;;;;;5057122;28;20103;-63
2022/07/31 08:44:16;;;;;;;8.85;7.47;;;21.40;93.40;;;;;;5039774;28;20380;-62
2022/07/31 08:46:43;;;;;;;8.80;7.18;;;21.50;93.10;;;;;;5058124;28;20490;-63
2022/07/31 08:49:10;;;;;;;12.10;9.80;;;21.70;92.90;;;;;;5060868;28;20012;-63
2022/07/31 08:51:37;;;;;;;12.93;9.55;;;21.90;92.70;;;;;;5062590;28;20025;-63
2022/07/31 08:54:09;;;;;;;12.48;8.70;;;21.90;92.50;;;;;;5058626;28;20032;-63
2022/07/31 08:56:35;;;;;;;13.10;9.07;;;21.90;92.80;;;;;;5040935;28;20504;-63
2022/07/31 08:59:02;;;;;;;13.60;9.95;;;21.90;93.20;;;;;;5036559;28;20136;-62
2022/07/31 09:01:28;;;;;;;12.10;9.18;;;21.90;92.70;;;;;;5036636;28;20037;-63
2022/07/31 09:03:55;;;;;;;11.32;8.48;;;21.80;92.70;;;;;;5048582;28;20024;-63
2022/07/31 09:06:20;;;;;;;8.95;7.75;;;21.90;92.60;;;;;;5046350;28;20036;-63
2022/07/31 09:08:46;;;;;;;10.63;8.35;;;22.10;92.50;;;;;;5049880;28;20473;-63
2022/07/31 09:11:13;;;;;;;10.68;8.18;;;22.20;92.30;;;;;;5051004;28;20059;-63
2022/07/31 09:13:39;;;;;;;12.65;8.63;;;22.30;92.10;;;;;;5054807;28;20040;-63
2022/07/31 09:16:05;;;;;;;14.73;10.07;;;22.30;91.90;;;;;;5046200;28;20082;-63
2022/07/31 09:18:38;;;;;;;10.98;8.52;;;22.30;92.20;;;;;;5063782;28;20033;-63
2022/07/31 09:21:05;;;;;;;9.55;7.93;;;22.30;92.20;;;;;;5063283;28;20039;-63
2022/07/31 09:23:31;;;;;;;9.20;7.40;;;22.30;92.20;;;;;;5061169;28;20025;-63
2022/07/31 09:26:06;;;;;;;11.52;8.85;;;22.30;92.10;;;;;;5056627;28;20021;-63
2022/07/31 09:28:41;;;;;;;9.75;8.25;;;22.40;92.10;;;;;;5055410;28;20105;-62
2022/07/31 09:31:09;;;;;;;9.05;7.88;;;22.40;92.10;;;;;;5066239;28;20087;-63
2022/07/31 09:33:37;;;;;;;12.02;9.25;;;22.40;92.20;;;;;;5055748;28;20540;-63
2022/07/31 09:36:03;;;;;;;10.60;9.00;;;22.60;92.10;;;;;;5061455;28;20130;-63
2022/07/31 09:38:31;;;;;;;9.10;7.72;;;22.70;91.70;;;;;;5061786;28;20488;-63
2022/07/31 09:41:17;;;;;;;14.15;10.90;;;22.60;91.60;;;;;;5064478;28;20071;-63
2022/07/31 09:43:59;;;;;;;13.65;10.68;;;22.50;91.90;;;;;;5065873;28;20457;-63
2022/07/31 09:46:26;;;;;;;11.68;10.13;;;22.40;92.20;;;;;;5058508;28;20087;-62
2022/07/31 09:48:57;;;;;;;15.38;12.02;;;22.40;92.50;;;;;;5061688;28;20027;-63
2022/07/31 09:51:23;;;;;;;13.52;12.13;;;22.20;93.00;;;;;;5062828;28;20021;-63
2022/07/31 09:53:54;;;;;;;13.40;11.77;;;22.10;93.60;;;;;;5035885;28;20544;-63
2022/07/31 09:56:33;;;;;;;17.40;11.95;;;22.00;93.70;;;;;;5052008;28;20052;-63
2022/07/31 09:59:29;;;;;;;;;;;;;;;;;;;;;
2022/07/31 10:01:55;;;;;;;15.30;13.25;;;22.10;93.90;;;;;;5035771;28;20049;-63
2022/07/31 10:04:22;;;;;;;14.90;13.07;;;22.10;94.30;;;;;;5055116;28;20716;-62
2022/07/31 10:07:21;;;;;;;15.20;13.70;;;22.10;94.20;;;;;;5061862;28;20032;-62
2022/07/31 10:09:47;;;;;;;14.02;11.48;;;22.20;93.90;;;;;;4972575;28;20045;-63
2022/07/31 10:12:18;;;;;;;14.55;11.73;;;22.10;94.00;;;;;;4972317;28;20415;-63
2022/07/31 10:14:45;;;;;;;12.57;11.25;;;22.10;93.90;;;;;;4971836;28;20116;-63
2022/07/31 10:17:16;;;;;;;15.27;12.48;;;22.20;93.90;;;;;;4983284;28;20114;-62
2022/07/31 10:19:46;;;;;;;12.30;11.00;;;22.10;93.70;;;;;;4969434;28;20044;-63
2022/07/31 10:25:50;;;;;;;14.75;13.25;;;22.20;93.50;;;;;;4981753;28;20513;-63
2022/07/31 10:28:16;;;;;;;12.13;10.80;;;22.20;93.60;;;;;;4977381;28;20023;-62
2022/07/31 10:30:44;;;;;;;13.55;12.15;;;22.30;93.50;;;;;;4972774;28;20043;-62
2022/07/31 10:33:10;;;;;;;14.02;12.57;;;22.30;93.50;;;;;;4973686;28;20052;-63
2022/07/31 10:35:55;;;;;;;;;;;;;;;;;;;;;
2022/07/31 10:39:11;;;;;;;16.95;15.25;;;22.50;93.30;;;;;;5041856;28;20021;-63
2022/07/31 10:45:22;;;;;;;14.10;12.60;;;22.70;92.80;;;;;;5008996;28;20125;-63
2022/07/31 10:48:38;;;;;;;12.02;10.77;;;22.80;92.80;;;;;;5046782;28;20477;-63
2022/07/31 10:51:08;;;;;;;11.43;9.80;;;22.80;92.40;;;;;;5023387;28;20033;-63
2022/07/31 10:53:34;;;;;;;11.60;10.30;;;22.90;92.40;;;;;;5056907;28;20021;-63
2022/07/31 10:56:09;;;;;;;13.10;11.65;;;23.00;92.30;;;;;;5053227;28;20057;-63
2022/07/31 10:58:52;;;;;;;10.02;9.00;;;23.00;92.10;;;;;;5053571;28;20021;-63
2022/07/31 11:01:18;;;;;;;10.75;9.65;;;23.00;92.20;;;;;;5055471;28;20032;-63
2022/07/31 11:03:51;;;;;;;10.43;9.30;;;23.00;92.10;;;;;;5060899;28;20028;-63
2022/07/31 11:06:17;;;;;;;8.93;8.02;;;23.10;91.80;;;;;;5045480;28;20024;-63
2022/07/31 11:08:50;;;;;;;9.18;8.38;;;23.20;91.60;;;;;;5057782;28;20025;-63
2022/07/31 11:11:15;;;;;;;9.95;8.93;;;23.30;91.50;;;;;;5052098;28;20029;-63
2022/07/31 11:13:49;;;;;;;8.95;8.02;;;23.40;91.20;;;;;;5056115;28;20025;-63
2022/07/31 11:16:16;;;;;;;9.70;8.73;;;23.30;91.00;;;;;;5055721;28;20029;-63
2022/07/31 11:18:42;;;;;;;7.90;7.20;;;23.30;91.20;;;;;;5040276;28;20029;-63
2022/07/31 11:21:09;;;;;;;9.13;8.32;;;23.30;91.20;;;;;;5060023;28;20020;-63
2022/07/31 11:23:36;;;;;;;8.85;8.10;;;23.40;91.00;;;;;;5065339;28;20040;-63
2022/07/31 11:26:21;;;;;;;;;;;;;;;;;;;;;
2022/07/31 11:29:12;;;;;;;7.80;6.57;;;23.40;91.10;;;;;;5057764;28;20035;-63
2022/07/31 11:31:48;;;;;;;6.45;5.80;;;23.40;90.70;;;;;;5056963;28;20107;-63
2022/07/31 11:34:13;;;;;;;8.68;6.75;;;23.40;90.80;;;;;;5041091;28;20013;-63
2022/07/31 11:36:42;;;;;;;9.40;7.53;;;23.40;90.70;;;;;;5055260;28;20035;-63
2022/07/31 11:39:11;;;;;;;7.45;6.25;;;23.40;90.90;;;;;;5059512;28;20032;-63
2022/07/31 11:41:37;;;;;;;7.25;6.25;;;23.40;90.90;;;;;;5058187;28;20086;-63
2022/07/31 11:44:03;;;;;;;6.68;6.07;;;23.40;90.80;;;;;;5063612;28;20481;-63
2022/07/31 11:46:32;;;;;;;5.70;5.13;;;23.50;90.60;;;;;;5057480;28;20476;-63
2022/07/31 11:48:58;;;;;;;8.25;5.35;;;23.60;90.60;;;;;;5059520;28;20028;-63
2022/07/31 11:51:26;;;;;;;7.00;5.03;;;23.60;90.40;;;;;;5054171;28;20052;-63
2022/07/31 11:53:57;;;;;;;5.70;5.20;;;23.60;90.30;;;;;;5053494;28;20102;-63
2022/07/31 11:56:25;;;;;;;5.45;4.72;;;23.60;90.20;;;;;;5038164;28;20416;-63
2022/07/31 11:58:55;;;;;;;6.95;4.88;;;23.60;90.20;;;;;;5032936;28;20018;-63
2022/07/31 12:01:26;;;;;;;3.65;3.35;;;23.70;90.10;;;;;;5031434;28;20028;-63
2022/07/31 12:03:52;;;;;;;4.43;3.60;;;23.90;90.00;;;;;;5060537;28;20037;-63
2022/07/31 12:06:19;;;;;;;3.33;3.00;;;24.00;89.70;;;;;;5044169;28;20026;-63
2022/07/31 12:08:49;;;;;;;4.70;3.70;;;24.10;89.10;;;;;;5049454;28;20024;-63
2022/07/31 12:11:18;;;;;;;4.88;3.80;;;24.30;88.60;;;;;;5047415;28;20382;-63
2022/07/31 12:13:48;;;;;;;5.72;4.20;;;24.30;87.90;;;;;;5041850;28;20023;-63
2022/07/31 12:16:14;;;;;;;4.13;3.63;;;24.40;87.40;;;;;;5057012;28;20413;-63
2022/07/31 12:18:46;;;;;;;3.85;3.55;;;24.40;87.20;;;;;;5060171;28;20421;-63
2022/07/31 12:21:12;;;;;;;3.83;3.40;;;24.40;86.80;;;;;;5061134;28;20082;-63
2022/07/31 12:23:49;;;;;;;4.95;3.67;;;24.50;87.00;;;;;;5063712;28;20013;-63
2022/07/31 12:26:58;;;;;;;5.00;4.00;;;24.50;86.70;;;;;;5059383;28;20016;-63
2022/07/31 12:29:49;;;;;;;4.55;3.75;;;24.50;86.30;;;;;;5022233;28;20029;-63
2022/07/31 12:32:26;;;;;;;4.85;4.07;;;24.50;86.00;;;;;;5029671;28;20060;-63
2022/07/31 12:35:04;;;;;;;3.65;3.35;;;24.50;86.20;;;;;;5050201;28;20437;-63
2022/07/31 12:37:40;;;;;;;4.18;3.78;;;24.60;86.10;;;;;;5041502;28;20018;-63
2022/07/31 12:40:06;;;;;;;4.78;3.60;;;24.80;85.80;;;;;;5058255;28;20037;-63
2022/07/31 12:42:33;;;;;;;3.35;3.03;;;24.90;84.70;;;;;;5062376;28;20033;-63
2022/07/31 12:45:01;;;;;;;3.55;2.97;;;25.10;84.50;;;;;;5060936;28;20025;-63
2022/07/31 12:47:29;;;;;;;4.70;3.80;;;25.20;84.40;;;;;;5061985;28;20364;-63
2022/07/31 12:50:06;;;;;;;4.95;3.60;;;25.30;83.50;;;;;;5054750;28;20036;-63
2022/07/31 12:52:33;;;;;;;5.53;4.07;;;25.30;82.90;;;;;;5038366;28;20124;-63
2022/07/31 12:55:01;;;;;;;5.07;3.65;;;25.20;82.80;;;;;;5049367;28;20100;-63
2022/07/31 12:57:27;;;;;;;5.45;4.18;;;25.30;82.70;;;;;;5034604;28;20489;-63
2022/07/31 12:59:53;;;;;;;8.43;4.55;;;25.40;82.40;;;;;;5035588;28;20535;-63
2022/07/31 13:02:18;;;;;;;6.22;4.63;;;25.40;81.90;;;;;;5036163;28;20046;-63
2022/07/31 13:04:44;;;;;;;6.80;4.80;;;25.40;82.00;;;;;;5039007;28;20036;-64